Judi M. — WCX8376 — position and weather

sailwx.info

Track history (hours):
 
Tides and Currents Weather Stations Pressure Air Temp Water Temp Dewpoint Dewpoint Depression Visibility Wind Speed Wind Dir Waves Ship Positions

Judi M.

Owner: MANKE TUG & BARGE CO INC, SHELTON, WA. More information available from US FCC via Universal Licensing System and Coast Guard Vessel Documentation Center.

Last reported at 2017-Jun-28 12:34 UTC. Time now 2017-Jun-29 12:47 UTC.
Position N 47°34' W 122°22'.

Length 29 m; draft 4 m.

Type: Tow > 200 m length. MMSI: 366740920.

Date/timePositionNaut miles runAvg speedWind from/ knotsBaromVisibWave heightAir tempDewpointWater temp
2017-Jun-28 12:34N 47°34' W 122°22'0 0.0
2017-Jun-28 12:30N 47°34' W 122°22'0 0.8
2017-Jun-28 12:00N 47°35' W 122°22'1 2.7
2017-Jun-28 11:31N 47°36' W 122°23'3 6.2
2017-Jun-28 11:00N 47°38' W 122°26'3 5.5
2017-Jun-28 10:30N 47°40' W 122°28'3 5.7
2017-Jun-28 10:00N 47°43' W 122°28'3 5.8
2017-Jun-28 09:30N 47°46' W 122°27'3 6.2
2017-Jun-28 09:00N 47°49' W 122°28'3 6.2
2017-Jun-28 08:30N 47°52' W 122°29'3 5.7
2017-Jun-28 08:00N 47°55' W 122°30'2 4.2
2017-Jun-28 07:30N 47°56' W 122°32'2 4.4
2017-Jun-28 06:59N 47°57' W 122°35'2 3.8
2017-Jun-28 06:30N 47°59' W 122°37'8 4.7
2017-Jun-28 04:44N 48°07' W 122°41'2 5.0
2017-Jun-28 04:26N 48°06' W 122°43'3 0.2
2017-Jun-27 11:32N 48°06' W 122°48'0 0.0
2017-Jun-27 11:31N 48°06' W 122°48'2 0.8
2017-Jun-27 09:13N 48°06' W 122°45'7 6.2
2017-Jun-27 08:09N 48°02' W 122°37'1 9.9
2017-Jun-27 08:00N 48°00' W 122°36'5 9.8
2017-Jun-27 07:30N 47°57' W 122°31'4 8.9
2017-Jun-27 07:00N 47°53' W 122°28'4 8.2
2017-Jun-27 06:30N 47°49' W 122°26'4 8.5
2017-Jun-27 06:01N 47°45' W 122°26'4 8.9
2017-Jun-27 05:30N 47°40' W 122°27'4 7.8
2017-Jun-27 05:00N 47°37' W 122°24'3 6.0
2017-Jun-27 04:31N 47°34' W 122°22'0 0.1
2017-Jun-27 04:00N 47°34' W 122°22'0 0.0
2017-Jun-27 03:31N 47°34' W 122°22'  
2017-Jun-22 12:23N 47°34' W 122°22'0 0.0
2017-Jun-22 12:00N 47°34' W 122°22'1 2.3
2017-Jun-22 11:31N 47°36' W 122°22'1 2.6
2017-Jun-22 11:00N 47°36' W 122°23'3 5.6
2017-Jun-22 10:30N 47°38' W 122°26'3 6.7
2017-Jun-22 10:00N 47°42' W 122°28'3 6.7
2017-Jun-22 09:30N 47°45' W 122°27'3 6.5
2017-Jun-22 09:00N 47°48' W 122°28'3 6.0
2017-Jun-22 08:30N 47°51' W 122°29'3 6.6
2017-Jun-22 08:00N 47°54' W 122°30'3 6.9
2017-Jun-22 07:30N 47°57' W 122°34'10 6.7
2017-Jun-22 05:58N 48°06' W 122°41'5 3.4
2017-Jun-22 04:33N 48°06' W 122°48'0 0.0
2017-Jun-22 04:14N 48°06' W 122°48'0 0.0
2017-Jun-22 04:00N 48°06' W 122°48'0 0.0
2017-Jun-22 03:24N 48°06' W 122°48'0 0.0
2017-Jun-22 02:39N 48°06' W 122°48'1 0.1
2017-Jun-21 11:59N 48°06' W 122°46'4 7.2
2017-Jun-21 11:25N 48°07' W 122°40'4 9.5
2017-Jun-21 11:00N 48°03' W 122°38'5 8.7
2017-Jun-21 10:26N 47°58' W 122°35'4 8.5
2017-Jun-21 10:00N 47°56' W 122°30'4 7.4
2017-Jun-21 09:30N 47°53' W 122°28'4 7.6
2017-Jun-21 09:00N 47°49' W 122°27'4 7.3
2017-Jun-21 08:30N 47°46' W 122°26'4 7.0
2017-Jun-21 08:00N 47°42' W 122°27'4 7.0
2017-Jun-21 07:30N 47°39' W 122°27'4 7.9
2017-Jun-21 07:00N 47°36' W 122°22'2 3.3
2017-Jun-21 06:30N 47°34' W 122°22'0 0.0
2017-Jun-21 06:00N 47°34' W 122°22'0 0.0
2017-Jun-21 05:31N 47°34' W 122°22'  
Track history (hours):
 
Tides and Currents Weather Stations Pressure Air Temp Water Temp Dewpoint Dewpoint Depression Visibility Wind Speed Wind Dir Waves Ship Positions

Judi M.

Owner: MANKE TUG & BARGE CO INC, SHELTON, WA. More information available from US FCC via Universal Licensing System and Coast Guard Vessel Documentation Center.

Last reported at 2017-Jun-28 12:34 UTC. Time now 2017-Jun-29 12:47 UTC.
Position N 47°34' W 122°22'.

Length 29 m; draft 4 m.

Type: Tow > 200 m length. MMSI: 366740920.

Date/timePositionNaut miles runAvg speedWind from/ knotsBaromVisibWave heightAir tempDewpointWater temp
2017-Jun-28 12:34N 47°34' W 122°22'0 0.0
2017-Jun-28 12:30N 47°34' W 122°22'0 0.8
2017-Jun-28 12:00N 47°35' W 122°22'1 2.7
2017-Jun-28 11:31N 47°36' W 122°23'3 6.2
2017-Jun-28 11:00N 47°38' W 122°26'3 5.5
2017-Jun-28 10:30N 47°40' W 122°28'3 5.7
2017-Jun-28 10:00N 47°43' W 122°28'3 5.8
2017-Jun-28 09:30N 47°46' W 122°27'3 6.2
2017-Jun-28 09:00N 47°49' W 122°28'3 6.2
2017-Jun-28 08:30N 47°52' W 122°29'3 5.7
2017-Jun-28 08:00N 47°55' W 122°30'2 4.2
2017-Jun-28 07:30N 47°56' W 122°32'2 4.4
2017-Jun-28 06:59N 47°57' W 122°35'2 3.8
2017-Jun-28 06:30N 47°59' W 122°37'8 4.7
2017-Jun-28 04:44N 48°07' W 122°41'2 5.0
2017-Jun-28 04:26N 48°06' W 122°43'3 0.2
2017-Jun-27 11:32N 48°06' W 122°48'0 0.0
2017-Jun-27 11:31N 48°06' W 122°48'2 0.8
2017-Jun-27 09:13N 48°06' W 122°45'7 6.2
2017-Jun-27 08:09N 48°02' W 122°37'1 9.9
2017-Jun-27 08:00N 48°00' W 122°36'5 9.8
2017-Jun-27 07:30N 47°57' W 122°31'4 8.9
2017-Jun-27 07:00N 47°53' W 122°28'4 8.2
2017-Jun-27 06:30N 47°49' W 122°26'4 8.5
2017-Jun-27 06:01N 47°45' W 122°26'4 8.9
2017-Jun-27 05:30N 47°40' W 122°27'4 7.8
2017-Jun-27 05:00N 47°37' W 122°24'3 6.0
2017-Jun-27 04:31N 47°34' W 122°22'0 0.1
2017-Jun-27 04:00N 47°34' W 122°22'0 0.0
2017-Jun-27 03:31N 47°34' W 122°22'  
2017-Jun-22 12:23N 47°34' W 122°22'0 0.0
2017-Jun-22 12:00N 47°34' W 122°22'1 2.3
2017-Jun-22 11:31N 47°36' W 122°22'1 2.6
2017-Jun-22 11:00N 47°36' W 122°23'3 5.6
2017-Jun-22 10:30N 47°38' W 122°26'3 6.7
2017-Jun-22 10:00N 47°42' W 122°28'3 6.7
2017-Jun-22 09:30N 47°45' W 122°27'3 6.5
2017-Jun-22 09:00N 47°48' W 122°28'3 6.0
2017-Jun-22 08:30N 47°51' W 122°29'3 6.6
2017-Jun-22 08:00N 47°54' W 122°30'3 6.9
2017-Jun-22 07:30N 47°57' W 122°34'10 6.7
2017-Jun-22 05:58N 48°06' W 122°41'5 3.4
2017-Jun-22 04:33N 48°06' W 122°48'0 0.0
2017-Jun-22 04:14N 48°06' W 122°48'0 0.0
2017-Jun-22 04:00N 48°06' W 122°48'0 0.0
2017-Jun-22 03:24N 48°06' W 122°48'0 0.0
2017-Jun-22 02:39N 48°06' W 122°48'1 0.1
2017-Jun-21 11:59N 48°06' W 122°46'4 7.2
2017-Jun-21 11:25N 48°07' W 122°40'4 9.5
2017-Jun-21 11:00N 48°03' W 122°38'5 8.7
2017-Jun-21 10:26N 47°58' W 122°35'4 8.5
2017-Jun-21 10:00N 47°56' W 122°30'4 7.4
2017-Jun-21 09:30N 47°53' W 122°28'4 7.6
2017-Jun-21 09:00N 47°49' W 122°27'4 7.3
2017-Jun-21 08:30N 47°46' W 122°26'4 7.0
2017-Jun-21 08:00N 47°42' W 122°27'4 7.0
2017-Jun-21 07:30N 47°39' W 122°27'4 7.9
2017-Jun-21 07:00N 47°36' W 122°22'2 3.3
2017-Jun-21 06:30N 47°34' W 122°22'0 0.0
2017-Jun-21 06:00N 47°34' W 122°22'0 0.0
2017-Jun-21 05:31N 47°34' W 122°22'  

Dump ship's entire track history